Aérodrome :
LOGIN :

S'inscrire | Disclaimer

   EN    FR    IT 

 










Légende :    VFR   VFR Marginal   IFR   IFR Intensif   IFR Très Intensif
Visi : 
Plafond : 
>= 8 km
>= 3000ft
5 à 8 km
1000 à 3000 ft
1500m à 5 km
500 à 1000 ft
800 à 1500m
200 à 500 ft
< 800m
< 200 ft
Symboles :   Orages  Brouillard  Fortes neiges  Fortes précipitations  Vent > 20 kt
SIGMETs :   Divers  Orages  Givrage  Turbulence  Onde Orograph.  Cendres Volcan.






- Altitude de l'aérodrome : 3 ft
- Code IATA : EME


EDWE - Emden

DERNIER METAR :
  • 162120Z AUTO VRB01KT 1300 R25/1400U // BKN160/// BKN180/// 19/18 Q1011

METARs EXPIRÉS :
  • 162050Z AUTO VRB02KT 0500 R25/0400D // BKN160/// 18/17 Q1011
  • 162020Z AUTO 34002KT 0350 R25/0400D // BKN170/// 19/18 Q1010
  • 161950Z AUTO VRB02KT 5000 // BKN150/// BKN170/// 19/18 Q1010
  • 161920Z AUTO 33006KT 7000 // BKN160/// 20/18 Q1010
  • 161850Z AUTO 32007KT 9000 // FEW150/// SCT240/// 20/19 Q1009

Prévision TAF périmée.



MET'MAP, la Météo Aéronautique d'un coup d'oeil ! - Copyright ORBIFLY Décembre 2007 - Disclaimer

ORBIFLY MET'MAP TEAM :

Programmation & Développement : Alexandra Zaïnal
Sur une idée originale de : Baudouin d'Aumeries
Soutien technique & logistique : Manuel Goepfert
Assistance : Marc-Olivier Méhu




SOURCES & CREDITS :

   NOAA